sensor_id;sensor_type;location;lat;lon;timestamp;P1;durP1;ratioP1;P2;durP2;ratioP2
17818;SDS011;9034;50.284;19.310;2024-01-11T00:00:08;158.35;;;61.47;;
17818;SDS011;9034;50.284;19.310;2024-01-11T00:01:12;149.68;;;56.67;;
17818;SDS011;9034;50.284;19.310;2024-01-11T00:02:14;142.45;;;52.38;;
17818;SDS011;9034;50.284;19.310;2024-01-11T00:03:17;132.75;;;52.67;;
17818;SDS011;9034;50.284;19.310;2024-01-11T00:04:20;155.98;;;51.45;;
17818;SDS011;9034;50.284;19.310;2024-01-11T00:05:22;139.50;;;53.75;;
17818;SDS011;9034;50.284;19.310;2024-01-11T00:06:25;160.40;;;59.15;;
17818;SDS011;9034;50.284;19.310;2024-01-11T00:07:27;153.38;;;53.15;;
17818;SDS011;9034;50.284;19.310;2024-01-11T00:08:30;164.77;;;57.38;;
17818;SDS011;9034;50.284;19.310;2024-01-11T00:09:32;144.80;;;55.05;;
17818;SDS011;9034;50.284;19.310;2024-01-11T00:10:35;150.15;;;56.30;;
17818;SDS011;9034;50.284;19.310;2024-01-11T00:11:38;147.85;;;56.15;;
17818;SDS011;9034;50.284;19.310;2024-01-11T00:12:40;169.13;;;60.65;;
17818;SDS011;9034;50.284;19.310;2024-01-11T00:13:43;160.32;;;56.67;;
17818;SDS011;9034;50.284;19.310;2024-01-11T00:14:45;184.30;;;63.83;;
17818;SDS011;9034;50.284;19.310;2024-01-11T00:15:48;187.88;;;66.68;;
17818;SDS011;9034;50.284;19.310;2024-01-11T00:16:50;165.70;;;62.40;;
17818;SDS011;9034;50.284;19.310;2024-01-11T00:17:53;164.40;;;60.35;;
17818;SDS011;9034;50.284;19.310;2024-01-11T00:18:56;162.32;;;58.88;;
17818;SDS011;9034;50.284;19.310;2024-01-11T00:19:59;167.23;;;61.72;;
17818;SDS011;9034;50.284;19.310;2024-01-11T00:21:02;174.85;;;64.68;;
17818;SDS011;9034;50.284;19.310;2024-01-11T00:22:05;164.98;;;61.40;;
17818;SDS011;9034;50.284;19.310;2024-01-11T00:23:07;183.48;;;67.93;;
17818;SDS011;9034;50.284;19.310;2024-01-11T00:24:10;171.60;;;65.60;;
17818;SDS011;9034;50.284;19.310;2024-01-11T00:25:12;168.95;;;65.03;;
17818;SDS011;9034;50.284;19.310;2024-01-11T00:26:15;169.88;;;64.55;;
17818;SDS011;9034;50.284;19.310;2024-01-11T00:27:18;188.10;;;65.07;;
17818;SDS011;9034;50.284;19.310;2024-01-11T00:28:22;176.35;;;67.18;;
17818;SDS011;9034;50.284;19.310;2024-01-11T00:29:23;187.82;;;67.15;;
17818;SDS011;9034;50.284;19.310;2024-01-11T00:30:26;158.93;;;61.38;;
17818;SDS011;9034;50.284;19.310;2024-01-11T00:31:28;165.70;;;62.50;;
17818;SDS011;9034;50.284;19.310;2024-01-11T00:32:30;157.10;;;59.45;;
17818;SDS011;9034;50.284;19.310;2024-01-11T00:33:33;165.52;;;61.45;;
17818;SDS011;9034;50.284;19.310;2024-01-11T00:34:35;170.50;;;62.47;;
17818;SDS011;9034;50.284;19.310;2024-01-11T00:35:38;162.63;;;60.42;;
17818;SDS011;9034;50.284;19.310;2024-01-11T00:36:40;165.77;;;57.75;;
17818;SDS011;9034;50.284;19.310;2024-01-11T00:37:43;173.43;;;62.30;;
17818;SDS011;9034;50.284;19.310;2024-01-11T00:38:45;171.15;;;60.42;;
17818;SDS011;9034;50.284;19.310;2024-01-11T00:39:48;167.82;;;61.22;;
17818;SDS011;9034;50.284;19.310;2024-01-11T00:40:50;178.68;;;63.90;;
17818;SDS011;9034;50.284;19.310;2024-01-11T00:41:53;192.75;;;64.60;;
17818;SDS011;9034;50.284;19.310;2024-01-11T00:42:56;187.50;;;66.35;;
17818;SDS011;9034;50.284;19.310;2024-01-11T00:43:59;158.73;;;59.13;;
17818;SDS011;9034;50.284;19.310;2024-01-11T00:45:01;156.52;;;60.33;;
17818;SDS011;9034;50.284;19.310;2024-01-11T00:46:04;166.63;;;60.63;;
17818;SDS011;9034;50.284;19.310;2024-01-11T00:47:06;171.95;;;59.15;;
17818;SDS011;9034;50.284;19.310;2024-01-11T00:48:09;178.75;;;65.75;;
17818;SDS011;9034;50.284;19.310;2024-01-11T00:49:11;163.70;;;63.88;;
17818;SDS011;9034;50.284;19.310;2024-01-11T00:50:13;174.55;;;64.13;;
17818;SDS011;9034;50.284;19.310;2024-01-11T00:51:16;166.23;;;60.28;;
17818;SDS011;9034;50.284;19.310;2024-01-11T00:52:18;151.85;;;58.58;;
17818;SDS011;9034;50.284;19.310;2024-01-11T00:53:21;159.38;;;58.50;;
17818;SDS011;9034;50.284;19.310;2024-01-11T00:54:23;170.45;;;62.67;;
17818;SDS011;9034;50.284;19.310;2024-01-11T00:55:26;164.18;;;58.35;;
17818;SDS011;9034;50.284;19.310;2024-01-11T00:56:28;165.80;;;65.20;;
17818;SDS011;9034;50.284;19.310;2024-01-11T00:57:31;145.27;;;56.45;;
17818;SDS011;9034;50.284;19.310;2024-01-11T00:58:34;154.57;;;57.70;;
17818;SDS011;9034;50.284;19.310;2024-01-11T00:59:37;156.68;;;55.08;;
17818;SDS011;9034;50.284;19.310;2024-01-11T01:00:41;154.05;;;57.38;;
17818;SDS011;9034;50.284;19.310;2024-01-11T01:01:46;141.20;;;54.53;;
17818;SDS011;9034;50.284;19.310;2024-01-11T01:02:49;154.60;;;58.65;;
17818;SDS011;9034;50.284;19.310;2024-01-11T01:03:52;163.30;;;63.10;;
17818;SDS011;9034;50.284;19.310;2024-01-11T01:04:54;163.50;;;62.63;;
17818;SDS011;9034;50.284;19.310;2024-01-11T01:05:57;170.50;;;60.58;;
17818;SDS011;9034;50.284;19.310;2024-01-11T01:06:59;186.15;;;71.90;;
17818;SDS011;9034;50.284;19.310;2024-01-11T01:08:02;184.13;;;70.68;;
17818;SDS011;9034;50.284;19.310;2024-01-11T01:09:04;176.02;;;67.32;;
17818;SDS011;9034;50.284;19.310;2024-01-11T01:10:07;166.25;;;65.15;;
17818;SDS011;9034;50.284;19.310;2024-01-11T01:11:09;167.40;;;62.35;;
17818;SDS011;9034;50.284;19.310;2024-01-11T01:12:12;177.68;;;62.05;;
17818;SDS011;9034;50.284;19.310;2024-01-11T01:13:14;168.98;;;64.85;;
17818;SDS011;9034;50.284;19.310;2024-01-11T01:14:19;202.88;;;75.80;;
17818;SDS011;9034;50.284;19.310;2024-01-11T01:15:21;166.20;;;60.13;;
17818;SDS011;9034;50.284;19.310;2024-01-11T01:16:23;154.75;;;57.58;;
17818;SDS011;9034;50.284;19.310;2024-01-11T01:17:25;171.73;;;59.20;;
17818;SDS011;9034;50.284;19.310;2024-01-11T01:18:28;176.50;;;61.47;;
17818;SDS011;9034;50.284;19.310;2024-01-11T01:19:31;165.95;;;59.40;;
17818;SDS011;9034;50.284;19.310;2024-01-11T01:20:34;173.57;;;62.92;;
17818;SDS011;9034;50.284;19.310;2024-01-11T01:21:36;174.82;;;62.70;;
17818;SDS011;9034;50.284;19.310;2024-01-11T01:22:39;155.45;;;63.03;;
17818;SDS011;9034;50.284;19.310;2024-01-11T01:23:41;197.02;;;71.25;;
17818;SDS011;9034;50.284;19.310;2024-01-11T01:24:44;170.07;;;61.50;;
17818;SDS011;9034;50.284;19.310;2024-01-11T01:25:46;189.80;;;69.40;;
17818;SDS011;9034;50.284;19.310;2024-01-11T01:26:49;178.55;;;63.95;;
17818;SDS011;9034;50.284;19.310;2024-01-11T01:27:51;181.23;;;67.15;;
17818;SDS011;9034;50.284;19.310;2024-01-11T01:28:53;183.95;;;68.53;;
17818;SDS011;9034;50.284;19.310;2024-01-11T01:29:57;206.65;;;75.85;;
17818;SDS011;9034;50.284;19.310;2024-01-11T01:30:59;210.70;;;77.80;;
17818;SDS011;9034;50.284;19.310;2024-01-11T01:32:02;193.25;;;72.10;;
17818;SDS011;9034;50.284;19.310;2024-01-11T01:33:05;213.32;;;77.82;;
17818;SDS011;9034;50.284;19.310;2024-01-11T01:34:08;225.82;;;79.28;;
17818;SDS011;9034;50.284;19.310;2024-01-11T01:35:10;209.77;;;78.05;;
17818;SDS011;9034;50.284;19.310;2024-01-11T01:36:13;205.88;;;77.07;;
17818;SDS011;9034;50.284;19.310;2024-01-11T01:37:15;210.88;;;80.10;;
17818;SDS011;9034;50.284;19.310;2024-01-11T01:38:18;207.30;;;75.63;;
17818;SDS011;9034;50.284;19.310;2024-01-11T01:39:20;219.60;;;79.93;;
17818;SDS011;9034;50.284;19.310;2024-01-11T01:40:23;206.23;;;77.50;;
17818;SDS011;9034;50.284;19.310;2024-01-11T01:41:25;212.93;;;77.88;;
17818;SDS011;9034;50.284;19.310;2024-01-11T01:42:27;203.70;;;74.85;;
17818;SDS011;9034;50.284;19.310;2024-01-11T01:43:29;206.77;;;76.97;;
17818;SDS011;9034;50.284;19.310;2024-01-11T01:44:32;191.25;;;73.28;;
17818;SDS011;9034;50.284;19.310;2024-01-11T01:45:36;227.05;;;81.63;;
17818;SDS011;9034;50.284;19.310;2024-01-11T01:46:39;213.15;;;80.63;;
17818;SDS011;9034;50.284;19.310;2024-01-11T01:47:41;207.88;;;79.68;;
17818;SDS011;9034;50.284;19.310;2024-01-11T01:48:45;178.85;;;66.57;;
17818;SDS011;9034;50.284;19.310;2024-01-11T01:49:47;191.00;;;65.57;;
17818;SDS011;9034;50.284;19.310;2024-01-11T01:50:51;182.00;;;65.93;;
17818;SDS011;9034;50.284;19.310;2024-01-11T01:51:53;199.68;;;73.80;;
17818;SDS011;9034;50.284;19.310;2024-01-11T01:52:57;194.55;;;71.60;;
17818;SDS011;9034;50.284;19.310;2024-01-11T01:53:59;195.68;;;74.00;;
17818;SDS011;9034;50.284;19.310;2024-01-11T01:55:03;194.75;;;73.60;;
17818;SDS011;9034;50.284;19.310;2024-01-11T01:56:06;168.48;;;65.10;;
17818;SDS011;9034;50.284;19.310;2024-01-11T01:57:09;179.77;;;64.80;;
17818;SDS011;9034;50.284;19.310;2024-01-11T01:58:12;179.98;;;64.95;;
17818;SDS011;9034;50.284;19.310;2024-01-11T01:59:15;173.68;;;65.22;;
17818;SDS011;9034;50.284;19.310;2024-01-11T02:00:17;181.82;;;65.75;;
17818;SDS011;9034;50.284;19.310;2024-01-11T02:01:22;180.60;;;69.10;;
17818;SDS011;9034;50.284;19.310;2024-01-11T02:02:25;199.18;;;71.93;;
17818;SDS011;9034;50.284;19.310;2024-01-11T02:03:28;191.88;;;70.07;;
17818;SDS011;9034;50.284;19.310;2024-01-11T02:04:31;193.15;;;66.72;;
17818;SDS011;9034;50.284;19.310;2024-01-11T02:05:34;184.43;;;69.40;;
17818;SDS011;9034;50.284;19.310;2024-01-11T02:06:36;188.07;;;68.50;;
17818;SDS011;9034;50.284;19.310;2024-01-11T02:07:40;165.82;;;65.38;;
17818;SDS011;9034;50.284;19.310;2024-01-11T02:08:42;204.20;;;73.05;;
17818;SDS011;9034;50.284;19.310;2024-01-11T02:09:45;189.27;;;69.55;;
17818;SDS011;9034;50.284;19.310;2024-01-11T02:10:48;186.57;;;69.65;;
17818;SDS011;9034;50.284;19.310;2024-01-11T02:11:51;187.20;;;71.95;;
17818;SDS011;9034;50.284;19.310;2024-01-11T02:12:53;170.13;;;66.07;;
17818;SDS011;9034;50.284;19.310;2024-01-11T02:13:56;175.93;;;67.70;;
17818;SDS011;9034;50.284;19.310;2024-01-11T02:14:59;185.95;;;67.35;;
17818;SDS011;9034;50.284;19.310;2024-01-11T02:16:02;178.98;;;68.13;;
17818;SDS011;9034;50.284;19.310;2024-01-11T02:17:07;171.15;;;62.85;;
17818;SDS011;9034;50.284;19.310;2024-01-11T02:18:10;159.25;;;59.45;;
17818;SDS011;9034;50.284;19.310;2024-01-11T02:19:12;187.20;;;65.60;;
17818;SDS011;9034;50.284;19.310;2024-01-11T02:20:16;189.60;;;71.85;;
17818;SDS011;9034;50.284;19.310;2024-01-11T02:21:18;176.75;;;67.57;;
17818;SDS011;9034;50.284;19.310;2024-01-11T02:22:22;179.93;;;69.05;;
17818;SDS011;9034;50.284;19.310;2024-01-11T02:23:26;183.85;;;67.82;;
17818;SDS011;9034;50.284;19.310;2024-01-11T02:24:31;178.95;;;71.03;;
17818;SDS011;9034;50.284;19.310;2024-01-11T02:25:36;193.27;;;73.15;;
17818;SDS011;9034;50.284;19.310;2024-01-11T02:26:52;182.18;;;70.85;;
17818;SDS011;9034;50.284;19.310;2024-01-11T02:27:59;197.77;;;74.05;;
17818;SDS011;9034;50.284;19.310;2024-01-11T02:29:02;205.45;;;72.22;;
17818;SDS011;9034;50.284;19.310;2024-01-11T02:30:04;177.05;;;63.67;;
17818;SDS011;9034;50.284;19.310;2024-01-11T02:31:08;153.00;;;59.40;;
17818;SDS011;9034;50.284;19.310;2024-01-11T02:32:10;180.18;;;64.72;;
17818;SDS011;9034;50.284;19.310;2024-01-11T02:33:13;173.13;;;65.82;;
17818;SDS011;9034;50.284;19.310;2024-01-11T02:34:17;172.40;;;64.43;;
17818;SDS011;9034;50.284;19.310;2024-01-11T02:35:21;183.68;;;67.50;;
17818;SDS011;9034;50.284;19.310;2024-01-11T02:36:23;194.65;;;73.85;;
17818;SDS011;9034;50.284;19.310;2024-01-11T02:37:27;184.05;;;67.95;;
17818;SDS011;9034;50.284;19.310;2024-01-11T02:38:29;184.25;;;70.13;;
17818;SDS011;9034;50.284;19.310;2024-01-11T02:39:34;169.02;;;65.57;;
17818;SDS011;9034;50.284;19.310;2024-01-11T02:40:37;176.75;;;62.72;;
17818;SDS011;9034;50.284;19.310;2024-01-11T02:41:40;192.02;;;66.60;;
17818;SDS011;9034;50.284;19.310;2024-01-11T02:42:42;178.60;;;65.70;;
17818;SDS011;9034;50.284;19.310;2024-01-11T02:43:46;199.68;;;72.07;;
17818;SDS011;9034;50.284;19.310;2024-01-11T02:44:48;202.73;;;75.47;;
17818;SDS011;9034;50.284;19.310;2024-01-11T02:45:53;200.57;;;76.93;;
17818;SDS011;9034;50.284;19.310;2024-01-11T02:46:56;196.30;;;73.40;;
17818;SDS011;9034;50.284;19.310;2024-01-11T02:47:57;204.30;;;81.88;;
17818;SDS011;9034;50.284;19.310;2024-01-11T02:49:01;204.25;;;73.07;;
17818;SDS011;9034;50.284;19.310;2024-01-11T02:50:03;177.20;;;66.97;;
17818;SDS011;9034;50.284;19.310;2024-01-11T02:51:06;194.98;;;69.47;;
17818;SDS011;9034;50.284;19.310;2024-01-11T02:52:08;186.18;;;67.82;;
17818;SDS011;9034;50.284;19.310;2024-01-11T02:53:11;207.95;;;75.97;;
17818;SDS011;9034;50.284;19.310;2024-01-11T02:54:13;209.32;;;79.88;;
17818;SDS011;9034;50.284;19.310;2024-01-11T02:55:17;225.70;;;80.57;;
17818;SDS011;9034;50.284;19.310;2024-01-11T02:56:19;223.15;;;80.93;;
17818;SDS011;9034;50.284;19.310;2024-01-11T02:57:22;220.20;;;80.72;;
17818;SDS011;9034;50.284;19.310;2024-01-11T02:58:24;226.00;;;77.70;;
17818;SDS011;9034;50.284;19.310;2024-01-11T02:59:27;219.10;;;79.10;;
17818;SDS011;9034;50.284;19.310;2024-01-11T03:00:30;205.25;;;76.80;;
17818;SDS011;9034;50.284;19.310;2024-01-11T03:01:33;213.02;;;81.70;;
17818;SDS011;9034;50.284;19.310;2024-01-11T03:02:34;198.98;;;72.07;;
17818;SDS011;9034;50.284;19.310;2024-01-11T03:03:40;230.35;;;78.22;;
17818;SDS011;9034;50.284;19.310;2024-01-11T03:04:42;213.30;;;74.80;;
17818;SDS011;9034;50.284;19.310;2024-01-11T03:05:45;216.10;;;75.00;;
17818;SDS011;9034;50.284;19.310;2024-01-11T03:06:47;201.23;;;72.70;;
17818;SDS011;9034;50.284;19.310;2024-01-11T03:07:50;217.27;;;74.55;;
17818;SDS011;9034;50.284;19.310;2024-01-11T03:08:52;211.23;;;75.75;;
17818;SDS011;9034;50.284;19.310;2024-01-11T03:09:55;205.43;;;77.85;;
17818;SDS011;9034;50.284;19.310;2024-01-11T03:10:58;197.23;;;75.03;;
17818;SDS011;9034;50.284;19.310;2024-01-11T03:12:02;205.73;;;75.45;;
17818;SDS011;9034;50.284;19.310;2024-01-11T03:13:04;192.23;;;70.53;;
17818;SDS011;9034;50.284;19.310;2024-01-11T03:14:07;182.68;;;64.60;;
17818;SDS011;9034;50.284;19.310;2024-01-11T03:15:09;180.32;;;64.90;;
17818;SDS011;9034;50.284;19.310;2024-01-11T03:16:12;190.35;;;67.00;;
17818;SDS011;9034;50.284;19.310;2024-01-11T03:17:15;187.52;;;67.57;;
17818;SDS011;9034;50.284;19.310;2024-01-11T03:18:17;179.63;;;72.10;;
17818;SDS011;9034;50.284;19.310;2024-01-11T03:19:20;192.90;;;71.97;;
17818;SDS011;9034;50.284;19.310;2024-01-11T03:20:22;215.82;;;78.53;;
17818;SDS011;9034;50.284;19.310;2024-01-11T03:21:26;204.70;;;75.78;;
17818;SDS011;9034;50.284;19.310;2024-01-11T03:22:28;199.68;;;77.15;;
17818;SDS011;9034;50.284;19.310;2024-01-11T03:23:31;192.48;;;71.00;;
17818;SDS011;9034;50.284;19.310;2024-01-11T03:24:33;181.57;;;68.13;;
17818;SDS011;9034;50.284;19.310;2024-01-11T03:25:39;180.50;;;67.90;;
17818;SDS011;9034;50.284;19.310;2024-01-11T03:26:43;181.73;;;67.03;;
17818;SDS011;9034;50.284;19.310;2024-01-11T03:27:45;207.20;;;67.47;;
17818;SDS011;9034;50.284;19.310;2024-01-11T03:28:48;181.82;;;70.30;;
17818;SDS011;9034;50.284;19.310;2024-01-11T03:29:50;185.65;;;70.75;;
17818;SDS011;9034;50.284;19.310;2024-01-11T03:30:53;204.63;;;75.63;;
17818;SDS011;9034;50.284;19.310;2024-01-11T03:31:56;185.55;;;70.10;;
17818;SDS011;9034;50.284;19.310;2024-01-11T03:32:58;192.85;;;69.63;;
17818;SDS011;9034;50.284;19.310;2024-01-11T03:34:01;181.18;;;66.82;;
17818;SDS011;9034;50.284;19.310;2024-01-11T03:35:04;168.65;;;61.85;;
17818;SDS011;9034;50.284;19.310;2024-01-11T03:36:07;183.63;;;70.05;;
17818;SDS011;9034;50.284;19.310;2024-01-11T03:37:11;189.15;;;70.38;;
17818;SDS011;9034;50.284;19.310;2024-01-11T03:38:13;199.27;;;73.10;;
17818;SDS011;9034;50.284;19.310;2024-01-11T03:39:16;181.18;;;69.93;;
17818;SDS011;9034;50.284;19.310;2024-01-11T03:40:18;177.90;;;65.72;;
17818;SDS011;9034;50.284;19.310;2024-01-11T03:41:21;176.10;;;66.03;;
17818;SDS011;9034;50.284;19.310;2024-01-11T03:42:24;168.68;;;61.35;;
17818;SDS011;9034;50.284;19.310;2024-01-11T03:43:27;179.68;;;64.13;;
17818;SDS011;9034;50.284;19.310;2024-01-11T03:44:30;179.88;;;65.90;;
17818;SDS011;9034;50.284;19.310;2024-01-11T03:45:33;179.48;;;67.13;;
17818;SDS011;9034;50.284;19.310;2024-01-11T03:46:35;199.25;;;68.35;;
17818;SDS011;9034;50.284;19.310;2024-01-11T03:47:38;186.60;;;67.82;;
17818;SDS011;9034;50.284;19.310;2024-01-11T03:48:40;201.40;;;72.63;;
17818;SDS011;9034;50.284;19.310;2024-01-11T03:49:43;192.25;;;71.18;;
17818;SDS011;9034;50.284;19.310;2024-01-11T03:50:45;201.43;;;71.35;;
17818;SDS011;9034;50.284;19.310;2024-01-11T03:51:48;201.10;;;71.55;;
17818;SDS011;9034;50.284;19.310;2024-01-11T03:52:50;184.35;;;63.92;;
17818;SDS011;9034;50.284;19.310;2024-01-11T03:53:53;193.05;;;68.70;;
17818;SDS011;9034;50.284;19.310;2024-01-11T03:54:55;193.75;;;70.22;;
17818;SDS011;9034;50.284;19.310;2024-01-11T03:55:58;181.05;;;69.88;;
17818;SDS011;9034;50.284;19.310;2024-01-11T03:57:01;157.68;;;59.83;;
17818;SDS011;9034;50.284;19.310;2024-01-11T03:58:06;177.02;;;61.35;;
17818;SDS011;9034;50.284;19.310;2024-01-11T03:59:07;179.13;;;64.43;;
17818;SDS011;9034;50.284;19.310;2024-01-11T04:00:11;172.30;;;64.35;;
17818;SDS011;9034;50.284;19.310;2024-01-11T04:01:13;172.10;;;63.65;;
17818;SDS011;9034;50.284;19.310;2024-01-11T04:02:16;175.35;;;63.15;;
17818;SDS011;9034;50.284;19.310;2024-01-11T04:03:18;166.00;;;60.20;;
17818;SDS011;9034;50.284;19.310;2024-01-11T04:04:21;180.95;;;65.85;;
17818;SDS011;9034;50.284;19.310;2024-01-11T04:05:23;160.85;;;64.80;;
17818;SDS011;9034;50.284;19.310;2024-01-11T04:06:26;178.95;;;63.67;;
17818;SDS011;9034;50.284;19.310;2024-01-11T04:07:28;173.40;;;64.82;;
17818;SDS011;9034;50.284;19.310;2024-01-11T04:08:31;165.02;;;61.97;;
17818;SDS011;9034;50.284;19.310;2024-01-11T04:09:33;159.75;;;57.97;;
17818;SDS011;9034;50.284;19.310;2024-01-11T04:10:35;159.85;;;60.55;;
17818;SDS011;9034;50.284;19.310;2024-01-11T04:11:38;172.70;;;63.95;;
17818;SDS011;9034;50.284;19.310;2024-01-11T04:12:40;168.85;;;60.85;;
17818;SDS011;9034;50.284;19.310;2024-01-11T04:13:45;171.32;;;61.63;;
17818;SDS011;9034;50.284;19.310;2024-01-11T04:14:46;176.43;;;61.38;;
17818;SDS011;9034;50.284;19.310;2024-01-11T04:15:49;170.55;;;60.90;;
17818;SDS011;9034;50.284;19.310;2024-01-11T04:16:51;157.70;;;60.90;;
17818;SDS011;9034;50.284;19.310;2024-01-11T04:17:54;173.13;;;60.03;;
17818;SDS011;9034;50.284;19.310;2024-01-11T04:18:56;168.65;;;62.38;;
17818;SDS011;9034;50.284;19.310;2024-01-11T04:19:58;159.82;;;62.13;;
17818;SDS011;9034;50.284;19.310;2024-01-11T04:21:01;174.23;;;60.80;;
17818;SDS011;9034;50.284;19.310;2024-01-11T04:22:04;192.55;;;64.72;;
17818;SDS011;9034;50.284;19.310;2024-01-11T04:23:05;164.23;;;59.95;;
17818;SDS011;9034;50.284;19.310;2024-01-11T04:24:08;170.52;;;64.55;;
17818;SDS011;9034;50.284;19.310;2024-01-11T04:25:10;195.77;;;66.70;;
17818;SDS011;9034;50.284;19.310;2024-01-11T04:26:13;162.40;;;60.03;;
17818;SDS011;9034;50.284;19.310;2024-01-11T04:27:15;154.02;;;56.72;;
17818;SDS011;9034;50.284;19.310;2024-01-11T04:28:18;161.05;;;59.88;;
17818;SDS011;9034;50.284;19.310;2024-01-11T04:29:22;151.73;;;55.97;;
17818;SDS011;9034;50.284;19.310;2024-01-11T04:30:24;159.57;;;59.28;;
17818;SDS011;9034;50.284;19.310;2024-01-11T04:31:27;175.30;;;59.28;;
17818;SDS011;9034;50.284;19.310;2024-01-11T04:32:29;162.30;;;59.33;;
17818;SDS011;9034;50.284;19.310;2024-01-11T04:33:32;159.68;;;60.28;;
17818;SDS011;9034;50.284;19.310;2024-01-11T04:34:34;170.35;;;65.25;;
17818;SDS011;9034;50.284;19.310;2024-01-11T04:35:37;172.57;;;63.80;;
17818;SDS011;9034;50.284;19.310;2024-01-11T04:36:39;157.90;;;62.67;;
17818;SDS011;9034;50.284;19.310;2024-01-11T04:37:42;167.98;;;63.85;;
17818;SDS011;9034;50.284;19.310;2024-01-11T04:38:44;175.35;;;63.65;;
17818;SDS011;9034;50.284;19.310;2024-01-11T04:39:47;178.63;;;64.80;;
17818;SDS011;9034;50.284;19.310;2024-01-11T04:40:49;168.70;;;62.05;;
17818;SDS011;9034;50.284;19.310;2024-01-11T04:41:52;174.73;;;64.25;;
17818;SDS011;9034;50.284;19.310;2024-01-11T04:42:54;160.48;;;62.35;;
17818;SDS011;9034;50.284;19.310;2024-01-11T04:43:57;171.15;;;64.97;;
17818;SDS011;9034;50.284;19.310;2024-01-11T04:45:00;162.38;;;61.45;;
17818;SDS011;9034;50.284;19.310;2024-01-11T04:46:03;160.75;;;61.72;;
17818;SDS011;9034;50.284;19.310;2024-01-11T04:47:05;163.27;;;59.15;;
17818;SDS011;9034;50.284;19.310;2024-01-11T04:48:09;164.15;;;63.13;;
17818;SDS011;9034;50.284;19.310;2024-01-11T04:49:12;164.57;;;60.67;;
17818;SDS011;9034;50.284;19.310;2024-01-11T04:50:17;169.27;;;62.67;;
17818;SDS011;9034;50.284;19.310;2024-01-11T04:51:22;152.60;;;59.50;;
17818;SDS011;9034;50.284;19.310;2024-01-11T04:52:25;164.02;;;58.60;;
17818;SDS011;9034;50.284;19.310;2024-01-11T04:53:27;162.65;;;60.78;;
17818;SDS011;9034;50.284;19.310;2024-01-11T04:54:30;160.90;;;62.28;;
17818;SDS011;9034;50.284;19.310;2024-01-11T04:55:32;156.32;;;60.22;;
17818;SDS011;9034;50.284;19.310;2024-01-11T04:56:35;165.55;;;61.17;;
17818;SDS011;9034;50.284;19.310;2024-01-11T04:57:37;157.98;;;60.30;;
17818;SDS011;9034;50.284;19.310;2024-01-11T04:58:40;164.95;;;59.72;;
17818;SDS011;9034;50.284;19.310;2024-01-11T04:59:43;161.23;;;61.58;;
17818;SDS011;9034;50.284;19.310;2024-01-11T05:00:47;172.68;;;63.30;;
17818;SDS011;9034;50.284;19.310;2024-01-11T05:01:50;163.38;;;62.72;;
17818;SDS011;9034;50.284;19.310;2024-01-11T05:02:53;174.45;;;63.85;;
17818;SDS011;9034;50.284;19.310;2024-01-11T05:03:55;154.90;;;60.00;;
17818;SDS011;9034;50.284;19.310;2024-01-11T05:04:58;153.85;;;59.55;;
17818;SDS011;9034;50.284;19.310;2024-01-11T05:06:00;154.55;;;59.97;;
17818;SDS011;9034;50.284;19.310;2024-01-11T05:07:03;161.25;;;60.75;;
17818;SDS011;9034;50.284;19.310;2024-01-11T05:08:05;161.85;;;59.67;;
17818;SDS011;9034;50.284;19.310;2024-01-11T05:09:08;146.75;;;56.40;;
17818;SDS011;9034;50.284;19.310;2024-01-11T05:10:10;164.13;;;58.08;;
17818;SDS011;9034;50.284;19.310;2024-01-11T05:11:16;171.50;;;62.05;;
17818;SDS011;9034;50.284;19.310;2024-01-11T05:12:18;145.52;;;56.28;;
17818;SDS011;9034;50.284;19.310;2024-01-11T05:13:21;149.50;;;56.28;;
17818;SDS011;9034;50.284;19.310;2024-01-11T05:14:23;147.23;;;56.10;;
17818;SDS011;9034;50.284;19.310;2024-01-11T05:15:26;157.60;;;59.63;;
17818;SDS011;9034;50.284;19.310;2024-01-11T05:16:30;153.63;;;60.45;;
17818;SDS011;9034;50.284;19.310;2024-01-11T05:17:32;170.02;;;60.80;;
17818;SDS011;9034;50.284;19.310;2024-01-11T05:18:35;168.30;;;60.53;;
17818;SDS011;9034;50.284;19.310;2024-01-11T05:19:38;162.35;;;58.92;;
17818;SDS011;9034;50.284;19.310;2024-01-11T05:20:40;153.95;;;56.50;;
17818;SDS011;9034;50.284;19.310;2024-01-11T05:21:43;156.50;;;60.22;;
17818;SDS011;9034;50.284;19.310;2024-01-11T05:22:45;163.07;;;59.58;;
17818;SDS011;9034;50.284;19.310;2024-01-11T05:23:47;161.88;;;60.42;;
17818;SDS011;9034;50.284;19.310;2024-01-11T05:24:50;157.35;;;59.08;;
17818;SDS011;9034;50.284;19.310;2024-01-11T05:25:52;191.27;;;65.55;;
17818;SDS011;9034;50.284;19.310;2024-01-11T05:26:55;169.50;;;65.93;;
17818;SDS011;9034;50.284;19.310;2024-01-11T05:27:57;179.50;;;64.53;;
17818;SDS011;9034;50.284;19.310;2024-01-11T05:29:00;170.68;;;61.67;;
17818;SDS011;9034;50.284;19.310;2024-01-11T05:30:02;179.95;;;61.65;;
17818;SDS011;9034;50.284;19.310;2024-01-11T05:31:05;181.30;;;65.85;;
17818;SDS011;9034;50.284;19.310;2024-01-11T05:32:10;177.60;;;61.33;;
17818;SDS011;9034;50.284;19.310;2024-01-11T05:33:12;157.05;;;56.65;;
17818;SDS011;9034;50.284;19.310;2024-01-11T05:34:15;168.35;;;57.42;;
17818;SDS011;9034;50.284;19.310;2024-01-11T05:35:17;174.48;;;60.58;;
17818;SDS011;9034;50.284;19.310;2024-01-11T05:36:20;165.60;;;61.42;;
17818;SDS011;9034;50.284;19.310;2024-01-11T05:37:23;151.60;;;57.45;;
17818;SDS011;9034;50.284;19.310;2024-01-11T05:38:26;179.60;;;61.85;;
17818;SDS011;9034;50.284;19.310;2024-01-11T05:39:28;179.05;;;65.13;;
17818;SDS011;9034;50.284;19.310;2024-01-11T05:40:30;166.70;;;61.53;;
17818;SDS011;9034;50.284;19.310;2024-01-11T05:41:32;189.57;;;67.22;;
17818;SDS011;9034;50.284;19.310;2024-01-11T05:42:35;173.75;;;65.80;;
17818;SDS011;9034;50.284;19.310;2024-01-11T05:43:39;158.68;;;62.20;;
17818;SDS011;9034;50.284;19.310;2024-01-11T05:44:42;157.10;;;60.78;;
17818;SDS011;9034;50.284;19.310;2024-01-11T05:45:45;177.85;;;66.70;;
17818;SDS011;9034;50.284;19.310;2024-01-11T05:46:49;175.75;;;65.70;;
17818;SDS011;9034;50.284;19.310;2024-01-11T05:47:53;165.75;;;61.75;;
17818;SDS011;9034;50.284;19.310;2024-01-11T05:48:56;163.07;;;59.85;;
17818;SDS011;9034;50.284;19.310;2024-01-11T05:49:59;159.77;;;59.92;;
17818;SDS011;9034;50.284;19.310;2024-01-11T05:51:02;169.50;;;62.60;;
17818;SDS011;9034;50.284;19.310;2024-01-11T05:52:04;172.23;;;61.22;;
17818;SDS011;9034;50.284;19.310;2024-01-11T05:53:07;195.73;;;76.07;;
17818;SDS011;9034;50.284;19.310;2024-01-11T05:54:09;208.02;;;80.55;;
17818;SDS011;9034;50.284;19.310;2024-01-11T05:55:12;205.50;;;82.78;;
17818;SDS011;9034;50.284;19.310;2024-01-11T05:56:14;230.20;;;90.55;;
17818;SDS011;9034;50.284;19.310;2024-01-11T05:57:17;215.88;;;90.00;;
17818;SDS011;9034;50.284;19.310;2024-01-11T05:58:19;223.00;;;87.25;;
17818;SDS011;9034;50.284;19.310;2024-01-11T05:59:22;198.88;;;76.55;;
17818;SDS011;9034;50.284;19.310;2024-01-11T06:00:24;200.75;;;76.72;;
17818;SDS011;9034;50.284;19.310;2024-01-11T06:01:27;199.95;;;79.35;;